16°C Temp
'.PHP_EOL;
8°C Dewpoint
59% Humidity
Temperature
14 KM/H
9 MPH
8 KTS
40°
North East

Wind
Overcast
Pressure 1017.92 (hPa)- 30.06 (in)
Visibility 9.9 (mi) - 16 (km)

Current Conditions
KTUL
Location 18(mi)
Metar:
KTUL 041953Z 04008KT 10SM OVC016 16/08 A3006 RMK AO2 SLP175 T01610083
Sat 4th December 12:53 pm

Airport
  Metar Aviation API Data Provided by https://www.checkwx.com/ Icons created by weather34.com